sensor_id;sensor_type;location;lat;lon;timestamp;temperature;humidity
52127;DHT22;38120;53.176;6.614;2022-12-29T00:02:22;10.20;99.90
52127;DHT22;38120;53.176;6.614;2022-12-29T00:04:49;10.20;99.90
52127;DHT22;38120;53.176;6.614;2022-12-29T00:07:16;10.20;99.90
52127;DHT22;38120;53.176;6.614;2022-12-29T00:10:01;10.20;99.90
52127;DHT22;38120;53.176;6.614;2022-12-29T00:15:29;10.20;99.90
52127;DHT22;38120;53.176;6.614;2022-12-29T00:18:05;10.20;99.90
52127;DHT22;38120;53.176;6.614;2022-12-29T00:20:33;10.20;99.90
52127;DHT22;38120;53.176;6.614;2022-12-29T00:23:17;10.30;99.90
52127;DHT22;38120;53.176;6.614;2022-12-29T00:26:03;10.30;99.90
52127;DHT22;38120;53.176;6.614;2022-12-29T00:28:47;10.30;99.90
52127;DHT22;38120;53.176;6.614;2022-12-29T00:31:31;10.30;99.90
52127;DHT22;38120;53.176;6.614;2022-12-29T00:34:16;10.30;99.90
52127;DHT22;38120;53.176;6.614;2022-12-29T00:37:00;10.30;99.90
52127;DHT22;38120;53.176;6.614;2022-12-29T00:39:26;10.30;99.90
52127;DHT22;38120;53.176;6.614;2022-12-29T00:42:10;10.40;99.90
52127;DHT22;38120;53.176;6.614;2022-12-29T00:44:54;10.30;99.90
52127;DHT22;38120;53.176;6.614;2022-12-29T00:47:20;10.40;99.90
52127;DHT22;38120;53.176;6.614;2022-12-29T00:49:45;10.40;99.90
52127;DHT22;38120;53.176;6.614;2022-12-29T00:52:12;10.40;99.90
52127;DHT22;38120;53.176;6.614;2022-12-29T00:54:39;10.50;99.90
52127;DHT22;38120;53.176;6.614;2022-12-29T00:57:07;10.50;99.90
52127;DHT22;38120;53.176;6.614;2022-12-29T00:59:38;10.50;99.90
52127;DHT22;38120;53.176;6.614;2022-12-29T01:02:04;10.50;99.90
52127;DHT22;38120;53.176;6.614;2022-12-29T01:04:30;10.50;99.90
52127;DHT22;38120;53.176;6.614;2022-12-29T01:06:56;10.50;99.90
52127;DHT22;38120;53.176;6.614;2022-12-29T01:09:22;10.60;99.90
52127;DHT22;38120;53.176;6.614;2022-12-29T01:12:08;10.60;99.90
52127;DHT22;38120;53.176;6.614;2022-12-29T01:17:17;10.60;99.90
52127;DHT22;38120;53.176;6.614;2022-12-29T01:19:43;10.60;99.90
52127;DHT22;38120;53.176;6.614;2022-12-29T01:22:09;10.50;99.90
52127;DHT22;38120;53.176;6.614;2022-12-29T01:24:35;10.60;99.90
52127;DHT22;38120;53.176;6.614;2022-12-29T01:27:00;10.60;99.90
52127;DHT22;38120;53.176;6.614;2022-12-29T01:29:26;10.60;99.90
52127;DHT22;38120;53.176;6.614;2022-12-29T01:31:52;9.50;99.90
52127;DHT22;38120;53.176;6.614;2022-12-29T01:34:18;10.60;99.90
52127;DHT22;38120;53.176;6.614;2022-12-29T01:36:43;10.60;99.90
52127;DHT22;38120;53.176;6.614;2022-12-29T01:39:09;10.60;99.90
52127;DHT22;38120;53.176;6.614;2022-12-29T01:41:35;10.60;99.90
52127;DHT22;38120;53.176;6.614;2022-12-29T01:44:01;10.50;99.90
52127;DHT22;38120;53.176;6.614;2022-12-29T01:46:39;10.50;99.90
52127;DHT22;38120;53.176;6.614;2022-12-29T01:49:12;10.50;99.90
52127;DHT22;38120;53.176;6.614;2022-12-29T01:51:42;10.50;99.90
52127;DHT22;38120;53.176;6.614;2022-12-29T01:54:12;10.50;99.90
52127;DHT22;38120;53.176;6.614;2022-12-29T01:56:39;10.40;99.90
52127;DHT22;38120;53.176;6.614;2022-12-29T01:59:10;10.40;99.90
52127;DHT22;38120;53.176;6.614;2022-12-29T02:01:37;10.50;99.90
52127;DHT22;38120;53.176;6.614;2022-12-29T02:04:04;10.40;99.90
52127;DHT22;38120;53.176;6.614;2022-12-29T02:06:34;10.40;99.90
52127;DHT22;38120;53.176;6.614;2022-12-29T02:09:02;10.40;99.90
52127;DHT22;38120;53.176;6.614;2022-12-29T02:11:29;10.40;99.90
52127;DHT22;38120;53.176;6.614;2022-12-29T02:13:56;10.30;99.90
52127;DHT22;38120;53.176;6.614;2022-12-29T02:27:55;10.40;99.90
52127;DHT22;38120;53.176;6.614;2022-12-29T02:36:42;10.50;99.90
52127;DHT22;38120;53.176;6.614;2022-12-29T02:39:35;10.50;99.90
52127;DHT22;38120;53.176;6.614;2022-12-29T02:42:05;10.50;99.90
52127;DHT22;38120;53.176;6.614;2022-12-29T02:44:59;10.40;99.90
52127;DHT22;38120;53.176;6.614;2022-12-29T02:47:47;10.40;99.90
52127;DHT22;38120;53.176;6.614;2022-12-29T02:50:17;10.50;99.90
52127;DHT22;38120;53.176;6.614;2022-12-29T02:52:52;10.40;99.90
52127;DHT22;38120;53.176;6.614;2022-12-29T02:55:20;10.40;99.90
52127;DHT22;38120;53.176;6.614;2022-12-29T02:57:45;10.40;99.90
52127;DHT22;38120;53.176;6.614;2022-12-29T03:00:16;10.40;99.90
52127;DHT22;38120;53.176;6.614;2022-12-29T03:02:46;10.50;99.90
52127;DHT22;38120;53.176;6.614;2022-12-29T03:05:22;10.40;99.90
52127;DHT22;38120;53.176;6.614;2022-12-29T03:11:07;10.50;99.90
52127;DHT22;38120;53.176;6.614;2022-12-29T03:17:43;10.50;99.90
52127;DHT22;38120;53.176;6.614;2022-12-29T03:20:19;10.50;99.90
52127;DHT22;38120;53.176;6.614;2022-12-29T03:22:47;10.50;99.90
52127;DHT22;38120;53.176;6.614;2022-12-29T03:27:49;10.50;99.90
52127;DHT22;38120;53.176;6.614;2022-12-29T03:30:15;10.50;99.90
52127;DHT22;38120;53.176;6.614;2022-12-29T03:32:48;9.90;99.90
52127;DHT22;38120;53.176;6.614;2022-12-29T03:35:19;10.50;99.90
52127;DHT22;38120;53.176;6.614;2022-12-29T03:37:58;10.50;99.90
52127;DHT22;38120;53.176;6.614;2022-12-29T03:40:26;10.50;99.90
52127;DHT22;38120;53.176;6.614;2022-12-29T03:42:58;10.00;99.90
52127;DHT22;38120;53.176;6.614;2022-12-29T03:45:24;10.40;99.90
52127;DHT22;38120;53.176;6.614;2022-12-29T03:47:51;10.40;99.90
52127;DHT22;38120;53.176;6.614;2022-12-29T03:50:37;10.30;99.90
52127;DHT22;38120;53.176;6.614;2022-12-29T03:53:03;10.10;99.90
52127;DHT22;38120;53.176;6.614;2022-12-29T03:55:29;10.40;99.90
52127;DHT22;38120;53.176;6.614;2022-12-29T03:57:54;10.40;99.90
52127;DHT22;38120;53.176;6.614;2022-12-29T04:00:20;10.40;99.90
52127;DHT22;38120;53.176;6.614;2022-12-29T04:02:46;10.40;99.90
52127;DHT22;38120;53.176;6.614;2022-12-29T04:05:12;10.40;99.90
52127;DHT22;38120;53.176;6.614;2022-12-29T04:07:38;10.50;99.90
52127;DHT22;38120;53.176;6.614;2022-12-29T04:10:04;10.50;99.90
52127;DHT22;38120;53.176;6.614;2022-12-29T04:12:30;10.50;99.90
52127;DHT22;38120;53.176;6.614;2022-12-29T04:14:56;10.50;99.90
52127;DHT22;38120;53.176;6.614;2022-12-29T04:17:22;10.50;99.90
52127;DHT22;38120;53.176;6.614;2022-12-29T04:19:48;10.50;99.90
52127;DHT22;38120;53.176;6.614;2022-12-29T04:22:13;10.40;99.90
52127;DHT22;38120;53.176;6.614;2022-12-29T04:24:39;10.40;99.90
52127;DHT22;38120;53.176;6.614;2022-12-29T04:27:05;10.40;99.90
52127;DHT22;38120;53.176;6.614;2022-12-29T04:29:31;10.40;99.90
52127;DHT22;38120;53.176;6.614;2022-12-29T04:31:57;10.40;99.90
52127;DHT22;38120;53.176;6.614;2022-12-29T04:34:22;10.50;99.90
52127;DHT22;38120;53.176;6.614;2022-12-29T04:37:07;10.40;99.90
52127;DHT22;38120;53.176;6.614;2022-12-29T04:39:33;10.50;99.90
52127;DHT22;38120;53.176;6.614;2022-12-29T04:41:59;10.50;99.90
52127;DHT22;38120;53.176;6.614;2022-12-29T04:44:25;10.50;99.90
52127;DHT22;38120;53.176;6.614;2022-12-29T04:46:51;10.50;99.90
52127;DHT22;38120;53.176;6.614;2022-12-29T04:49:32;10.50;99.90
52127;DHT22;38120;53.176;6.614;2022-12-29T04:52:16;10.50;99.90
52127;DHT22;38120;53.176;6.614;2022-12-29T04:54:42;10.50;99.90
52127;DHT22;38120;53.176;6.614;2022-12-29T04:57:08;10.60;99.90
52127;DHT22;38120;53.176;6.614;2022-12-29T04:59:33;10.50;99.90
52127;DHT22;38120;53.176;6.614;2022-12-29T05:01:59;10.50;99.90
52127;DHT22;38120;53.176;6.614;2022-12-29T05:04:43;10.50;99.90
52127;DHT22;38120;53.176;6.614;2022-12-29T05:07:09;10.40;99.90
52127;DHT22;38120;53.176;6.614;2022-12-29T05:09:35;10.40;99.90
52127;DHT22;38120;53.176;6.614;2022-12-29T05:12:00;10.40;99.90
52127;DHT22;38120;53.176;6.614;2022-12-29T05:14:26;10.30;99.90
52127;DHT22;38120;53.176;6.614;2022-12-29T05:16:52;10.20;99.90
52127;DHT22;38120;53.176;6.614;2022-12-29T05:19:18;10.20;99.90
52127;DHT22;38120;53.176;6.614;2022-12-29T05:21:43;10.10;99.90
52127;DHT22;38120;53.176;6.614;2022-12-29T05:24:09;10.10;99.90
52127;DHT22;38120;53.176;6.614;2022-12-29T05:26:35;10.00;99.90
52127;DHT22;38120;53.176;6.614;2022-12-29T05:29:01;10.10;99.90
52127;DHT22;38120;53.176;6.614;2022-12-29T05:31:27;10.00;99.90
52127;DHT22;38120;53.176;6.614;2022-12-29T05:33:53;10.00;99.90
52127;DHT22;38120;53.176;6.614;2022-12-29T05:36:19;9.90;99.90
52127;DHT22;38120;53.176;6.614;2022-12-29T05:38:45;9.90;99.90
52127;DHT22;38120;53.176;6.614;2022-12-29T05:41:11;9.80;99.90
52127;DHT22;38120;53.176;6.614;2022-12-29T05:43:36;9.80;99.90
52127;DHT22;38120;53.176;6.614;2022-12-29T05:46:03;9.70;99.90
52127;DHT22;38120;53.176;6.614;2022-12-29T05:48:47;9.70;99.90
52127;DHT22;38120;53.176;6.614;2022-12-29T05:51:13;9.70;99.90
52127;DHT22;38120;53.176;6.614;2022-12-29T05:53:39;9.70;99.90
52127;DHT22;38120;53.176;6.614;2022-12-29T05:56:05;9.80;99.90
52127;DHT22;38120;53.176;6.614;2022-12-29T05:58:31;9.80;99.90
52127;DHT22;38120;53.176;6.614;2022-12-29T06:00:56;9.80;99.90
52127;DHT22;38120;53.176;6.614;2022-12-29T06:03:22;9.80;99.90
52127;DHT22;38120;53.176;6.614;2022-12-29T06:05:48;9.90;99.90
52127;DHT22;38120;53.176;6.614;2022-12-29T06:08:14;9.90;99.90
52127;DHT22;38120;53.176;6.614;2022-12-29T06:10:39;9.90;99.90
52127;DHT22;38120;53.176;6.614;2022-12-29T06:13:05;9.90;99.90
52127;DHT22;38120;53.176;6.614;2022-12-29T06:15:32;9.80;99.90
52127;DHT22;38120;53.176;6.614;2022-12-29T06:17:58;9.80;99.90
52127;DHT22;38120;53.176;6.614;2022-12-29T06:20:24;9.80;99.90
52127;DHT22;38120;53.176;6.614;2022-12-29T06:22:49;9.80;99.90
52127;DHT22;38120;53.176;6.614;2022-12-29T06:25:15;9.80;99.90
52127;DHT22;38120;53.176;6.614;2022-12-29T06:27:41;9.90;99.90
52127;DHT22;38120;53.176;6.614;2022-12-29T06:30:08;9.80;99.90
52127;DHT22;38120;53.176;6.614;2022-12-29T06:32:34;9.80;99.90
52127;DHT22;38120;53.176;6.614;2022-12-29T06:35:01;9.80;99.90
52127;DHT22;38120;53.176;6.614;2022-12-29T06:37:27;9.80;99.90
52127;DHT22;38120;53.176;6.614;2022-12-29T06:39:53;9.80;99.90
52127;DHT22;38120;53.176;6.614;2022-12-29T06:42:19;9.70;99.90
52127;DHT22;38120;53.176;6.614;2022-12-29T06:44:45;9.70;99.90
52127;DHT22;38120;53.176;6.614;2022-12-29T06:47:11;9.70;99.90
52127;DHT22;38120;53.176;6.614;2022-12-29T06:49:37;9.60;99.90
52127;DHT22;38120;53.176;6.614;2022-12-29T06:52:03;9.60;99.90
52127;DHT22;38120;53.176;6.614;2022-12-29T06:54:32;9.60;99.90
52127;DHT22;38120;53.176;6.614;2022-12-29T06:56:59;9.60;99.90
52127;DHT22;38120;53.176;6.614;2022-12-29T06:59:25;9.60;99.90
52127;DHT22;38120;53.176;6.614;2022-12-29T07:01:51;9.60;99.90
52127;DHT22;38120;53.176;6.614;2022-12-29T07:04:17;9.30;99.90
52127;DHT22;38120;53.176;6.614;2022-12-29T07:06:43;9.60;99.90
52127;DHT22;38120;53.176;6.614;2022-12-29T07:09:09;9.70;99.90
52127;DHT22;38120;53.176;6.614;2022-12-29T07:11:35;9.70;99.90
52127;DHT22;38120;53.176;6.614;2022-12-29T07:14:02;9.70;99.90
52127;DHT22;38120;53.176;6.614;2022-12-29T07:16:28;9.70;99.90
52127;DHT22;38120;53.176;6.614;2022-12-29T07:19:14;9.80;99.90
52127;DHT22;38120;53.176;6.614;2022-12-29T07:21:39;9.80;99.90
52127;DHT22;38120;53.176;6.614;2022-12-29T07:24:05;9.80;99.90
52127;DHT22;38120;53.176;6.614;2022-12-29T07:26:32;9.80;99.90
52127;DHT22;38120;53.176;6.614;2022-12-29T07:29:00;8.40;99.90
52127;DHT22;38120;53.176;6.614;2022-12-29T07:31:26;9.80;99.90
52127;DHT22;38120;53.176;6.614;2022-12-29T07:33:52;9.80;99.90
52127;DHT22;38120;53.176;6.614;2022-12-29T07:36:17;9.80;99.90
52127;DHT22;38120;53.176;6.614;2022-12-29T07:38:43;9.80;99.90
52127;DHT22;38120;53.176;6.614;2022-12-29T07:41:09;9.90;99.90
52127;DHT22;38120;53.176;6.614;2022-12-29T07:43:35;9.90;99.90
52127;DHT22;38120;53.176;6.614;2022-12-29T07:46:01;9.90;99.90
52127;DHT22;38120;53.176;6.614;2022-12-29T07:48:30;9.50;99.90
52127;DHT22;38120;53.176;6.614;2022-12-29T07:50:58;9.90;99.90
52127;DHT22;38120;53.176;6.614;2022-12-29T07:53:43;9.90;99.90
52127;DHT22;38120;53.176;6.614;2022-12-29T07:56:09;9.80;99.90
52127;DHT22;38120;53.176;6.614;2022-12-29T07:58:35;9.80;99.90
52127;DHT22;38120;53.176;6.614;2022-12-29T08:01:00;9.90;99.90
52127;DHT22;38120;53.176;6.614;2022-12-29T08:03:26;9.90;99.90
52127;DHT22;38120;53.176;6.614;2022-12-29T08:06:11;9.90;99.90
52127;DHT22;38120;53.176;6.614;2022-12-29T08:08:37;9.90;99.90
52127;DHT22;38120;53.176;6.614;2022-12-29T08:11:03;9.90;99.90
52127;DHT22;38120;53.176;6.614;2022-12-29T08:13:29;9.90;99.90
52127;DHT22;38120;53.176;6.614;2022-12-29T08:15:58;9.90;99.90
52127;DHT22;38120;53.176;6.614;2022-12-29T08:18:24;10.70;99.90
52127;DHT22;38120;53.176;6.614;2022-12-29T08:20:50;9.90;99.90
52127;DHT22;38120;53.176;6.614;2022-12-29T08:23:16;9.90;99.90
52127;DHT22;38120;53.176;6.614;2022-12-29T08:25:41;9.90;99.90
52127;DHT22;38120;53.176;6.614;2022-12-29T08:28:07;9.90;99.90
52127;DHT22;38120;53.176;6.614;2022-12-29T08:30:35;9.90;99.90
52127;DHT22;38120;53.176;6.614;2022-12-29T08:33:01;10.30;99.90
52127;DHT22;38120;53.176;6.614;2022-12-29T08:35:27;9.90;99.90
52127;DHT22;38120;53.176;6.614;2022-12-29T08:37:53;9.90;99.90
52127;DHT22;38120;53.176;6.614;2022-12-29T08:40:19;9.90;99.90
52127;DHT22;38120;53.176;6.614;2022-12-29T08:42:44;9.90;99.90
52127;DHT22;38120;53.176;6.614;2022-12-29T08:45:10;9.80;99.90
52127;DHT22;38120;53.176;6.614;2022-12-29T08:47:36;9.60;99.90
52127;DHT22;38120;53.176;6.614;2022-12-29T08:50:02;9.60;99.90
52127;DHT22;38120;53.176;6.614;2022-12-29T08:52:28;9.60;99.90
52127;DHT22;38120;53.176;6.614;2022-12-29T08:54:54;9.60;99.90
52127;DHT22;38120;53.176;6.614;2022-12-29T08:57:19;9.50;99.90
52127;DHT22;38120;53.176;6.614;2022-12-29T08:59:45;9.50;99.90
52127;DHT22;38120;53.176;6.614;2022-12-29T09:02:11;9.50;99.90
52127;DHT22;38120;53.176;6.614;2022-12-29T09:04:37;9.40;99.90
52127;DHT22;38120;53.176;6.614;2022-12-29T09:07:03;9.50;99.90
52127;DHT22;38120;53.176;6.614;2022-12-29T09:09:29;9.50;99.90
52127;DHT22;38120;53.176;6.614;2022-12-29T09:11:55;9.50;99.90
52127;DHT22;38120;53.176;6.614;2022-12-29T09:14:21;9.50;99.90
52127;DHT22;38120;53.176;6.614;2022-12-29T09:17:02;9.50;99.90
52127;DHT22;38120;53.176;6.614;2022-12-29T09:19:46;9.60;99.90
52127;DHT22;38120;53.176;6.614;2022-12-29T09:22:20;9.50;99.90
52127;DHT22;38120;53.176;6.614;2022-12-29T09:24:46;9.50;99.90
52127;DHT22;38120;53.176;6.614;2022-12-29T09:27:11;9.50;99.90
52127;DHT22;38120;53.176;6.614;2022-12-29T09:29:37;9.50;99.90
52127;DHT22;38120;53.176;6.614;2022-12-29T09:32:03;9.50;99.90
52127;DHT22;38120;53.176;6.614;2022-12-29T09:34:29;9.50;99.90
52127;DHT22;38120;53.176;6.614;2022-12-29T09:36:55;9.40;99.90
52127;DHT22;38120;53.176;6.614;2022-12-29T09:39:22;9.50;99.90
52127;DHT22;38120;53.176;6.614;2022-12-29T09:42:08;9.50;99.90
52127;DHT22;38120;53.176;6.614;2022-12-29T09:45:18;9.40;99.90
52127;DHT22;38120;53.176;6.614;2022-12-29T09:47:36;9.40;99.90
52127;DHT22;38120;53.176;6.614;2022-12-29T09:55:51;9.50;99.90
52127;DHT22;38120;53.176;6.614;2022-12-29T10:01:23;9.50;99.90
52127;DHT22;38120;53.176;6.614;2022-12-29T10:03:55;9.60;99.90
52127;DHT22;38120;53.176;6.614;2022-12-29T10:06:51;9.50;99.90
52127;DHT22;38120;53.176;6.614;2022-12-29T10:25:32;9.30;99.90
52127;DHT22;38120;53.176;6.614;2022-12-29T10:28:03;9.20;99.90
52127;DHT22;38120;53.176;6.614;2022-12-29T10:30:29;9.20;99.90
52127;DHT22;38120;53.176;6.614;2022-12-29T10:33:00;9.20;99.90
52127;DHT22;38120;53.176;6.614;2022-12-29T10:35:35;9.10;99.90
52127;DHT22;38120;53.176;6.614;2022-12-29T10:38:40;9.10;99.90
52127;DHT22;38120;53.176;6.614;2022-12-29T10:44:00;9.00;99.90
52127;DHT22;38120;53.176;6.614;2022-12-29T10:46:32;8.90;99.90
52127;DHT22;38120;53.176;6.614;2022-12-29T10:48:59;8.90;99.90
52127;DHT22;38120;53.176;6.614;2022-12-29T10:51:30;8.90;99.90
52127;DHT22;38120;53.176;6.614;2022-12-29T10:54:05;8.90;99.90
52127;DHT22;38120;53.176;6.614;2022-12-29T10:56:39;8.90;99.90
52127;DHT22;38120;53.176;6.614;2022-12-29T10:59:27;8.90;99.90
52127;DHT22;38120;53.176;6.614;2022-12-29T11:02:36;8.90;99.90
52127;DHT22;38120;53.176;6.614;2022-12-29T11:07:25;8.90;99.90
52127;DHT22;38120;53.176;6.614;2022-12-29T11:10:15;9.00;99.90
52127;DHT22;38120;53.176;6.614;2022-12-29T11:12:55;9.10;99.90
52127;DHT22;38120;53.176;6.614;2022-12-29T11:15:21;9.20;99.90
52127;DHT22;38120;53.176;6.614;2022-12-29T11:17:50;9.20;99.90
52127;DHT22;38120;53.176;6.614;2022-12-29T11:22:59;9.50;99.90
52127;DHT22;38120;53.176;6.614;2022-12-29T11:25:26;9.60;99.90
52127;DHT22;38120;53.176;6.614;2022-12-29T11:27:56;9.60;99.90
52127;DHT22;38120;53.176;6.614;2022-12-29T11:30:25;9.60;99.90
52127;DHT22;38120;53.176;6.614;2022-12-29T11:32:55;9.70;99.90
52127;DHT22;38120;53.176;6.614;2022-12-29T11:35:41;9.70;99.90
52127;DHT22;38120;53.176;6.614;2022-12-29T11:38:23;9.60;99.90
52127;DHT22;38120;53.176;6.614;2022-12-29T11:40:50;9.70;99.90
52127;DHT22;38120;53.176;6.614;2022-12-29T11:43:31;9.70;99.90
52127;DHT22;38120;53.176;6.614;2022-12-29T11:45:59;9.70;99.90
52127;DHT22;38120;53.176;6.614;2022-12-29T11:48:39;9.70;99.90
52127;DHT22;38120;53.176;6.614;2022-12-29T11:51:06;9.70;99.90
52127;DHT22;38120;53.176;6.614;2022-12-29T11:53:45;9.80;99.90
52127;DHT22;38120;53.176;6.614;2022-12-29T11:56:14;8.00;99.90
52127;DHT22;38120;53.176;6.614;2022-12-29T11:58:41;9.90;99.90
52127;DHT22;38120;53.176;6.614;2022-12-29T12:04:07;10.00;99.90
52127;DHT22;38120;53.176;6.614;2022-12-29T12:06:41;10.00;99.90
52127;DHT22;38120;53.176;6.614;2022-12-29T12:09:16;10.10;99.90
52127;DHT22;38120;53.176;6.614;2022-12-29T12:11:45;10.10;99.90
52127;DHT22;38120;53.176;6.614;2022-12-29T12:14:19;10.20;99.90
52127;DHT22;38120;53.176;6.614;2022-12-29T12:22:07;10.00;99.90
52127;DHT22;38120;53.176;6.614;2022-12-29T12:27:24;9.90;99.90
52127;DHT22;38120;53.176;6.614;2022-12-29T12:30:12;11.40;99.90
52127;DHT22;38120;53.176;6.614;2022-12-29T12:32:46;9.90;99.90
52127;DHT22;38120;53.176;6.614;2022-12-29T12:35:16;9.80;99.90
52127;DHT22;38120;53.176;6.614;2022-12-29T12:38:07;9.70;99.90
52127;DHT22;38120;53.176;6.614;2022-12-29T12:46:13;9.70;99.90
52127;DHT22;38120;53.176;6.614;2022-12-29T13:00:11;9.80;99.90
52127;DHT22;38120;53.176;6.614;2022-12-29T13:14:02;9.80;99.90
52127;DHT22;38120;53.176;6.614;2022-12-29T13:19:11;9.90;99.90
52127;DHT22;38120;53.176;6.614;2022-12-29T13:22:32;9.90;99.90
52127;DHT22;38120;53.176;6.614;2022-12-29T13:25:17;9.90;99.90
52127;DHT22;38120;53.176;6.614;2022-12-29T13:28:02;9.90;99.90
52127;DHT22;38120;53.176;6.614;2022-12-29T13:30:59;9.90;99.90
52127;DHT22;38120;53.176;6.614;2022-12-29T13:33:51;9.90;99.90
52127;DHT22;38120;53.176;6.614;2022-12-29T13:36:43;9.80;99.90
52127;DHT22;38120;53.176;6.614;2022-12-29T13:39:26;9.80;99.90
52127;DHT22;38120;53.176;6.614;2022-12-29T13:41:54;9.70;99.90
52127;DHT22;38120;53.176;6.614;2022-12-29T13:44:31;9.70;99.90
52127;DHT22;38120;53.176;6.614;2022-12-29T13:47:00;9.80;99.90
52127;DHT22;38120;53.176;6.614;2022-12-29T13:49:46;9.80;99.90
52127;DHT22;38120;53.176;6.614;2022-12-29T13:52:44;9.80;99.90
52127;DHT22;38120;53.176;6.614;2022-12-29T13:55:20;9.80;99.90
52127;DHT22;38120;53.176;6.614;2022-12-29T13:58:13;9.80;99.90
52127;DHT22;38120;53.176;6.614;2022-12-29T14:03:48;9.80;99.90
52127;DHT22;38120;53.176;6.614;2022-12-29T14:06:31;9.80;99.90
52127;DHT22;38120;53.176;6.614;2022-12-29T14:09:03;9.70;99.90
52127;DHT22;38120;53.176;6.614;2022-12-29T14:11:35;9.60;99.90
52127;DHT22;38120;53.176;6.614;2022-12-29T14:14:18;8.60;99.90
52127;DHT22;38120;53.176;6.614;2022-12-29T14:16:45;9.40;99.90
52127;DHT22;38120;53.176;6.614;2022-12-29T14:21:40;9.40;99.90
52127;DHT22;38120;53.176;6.614;2022-12-29T14:26:51;9.40;99.90
52127;DHT22;38120;53.176;6.614;2022-12-29T14:31:53;9.30;99.90
52127;DHT22;38120;53.176;6.614;2022-12-29T14:34:26;9.30;99.90
52127;DHT22;38120;53.176;6.614;2022-12-29T14:36:58;8.80;99.90
52127;DHT22;38120;53.176;6.614;2022-12-29T14:39:37;9.30;99.90
52127;DHT22;38120;53.176;6.614;2022-12-29T14:42:13;9.20;99.90
52127;DHT22;38120;53.176;6.614;2022-12-29T14:45:03;9.20;99.90
52127;DHT22;38120;53.176;6.614;2022-12-29T14:50:13;9.20;99.90
52127;DHT22;38120;53.176;6.614;2022-12-29T14:53:01;9.20;99.90
52127;DHT22;38120;53.176;6.614;2022-12-29T14:55:41;9.20;99.90
52127;DHT22;38120;53.176;6.614;2022-12-29T14:58:21;9.00;99.90
52127;DHT22;38120;53.176;6.614;2022-12-29T15:00:48;9.00;99.90
52127;DHT22;38120;53.176;6.614;2022-12-29T15:05:55;8.90;99.90
52127;DHT22;38120;53.176;6.614;2022-12-29T15:08:32;8.80;99.90
52127;DHT22;38120;53.176;6.614;2022-12-29T15:11:03;8.70;99.90
52127;DHT22;38120;53.176;6.614;2022-12-29T15:13:36;8.70;99.90
52127;DHT22;38120;53.176;6.614;2022-12-29T15:16:03;8.70;99.90
52127;DHT22;38120;53.176;6.614;2022-12-29T15:18:31;8.70;99.90
52127;DHT22;38120;53.176;6.614;2022-12-29T15:21:02;8.70;99.90
52127;DHT22;38120;53.176;6.614;2022-12-29T15:23:31;8.60;99.90
52127;DHT22;38120;53.176;6.614;2022-12-29T15:26:00;8.60;99.90
52127;DHT22;38120;53.176;6.614;2022-12-29T15:28:28;8.50;99.90
52127;DHT22;38120;53.176;6.614;2022-12-29T15:31:04;8.50;99.90
52127;DHT22;38120;53.176;6.614;2022-12-29T15:33:30;8.50;99.90
52127;DHT22;38120;53.176;6.614;2022-12-29T15:36:03;8.60;99.90
52127;DHT22;38120;53.176;6.614;2022-12-29T15:38:30;8.40;99.90
52127;DHT22;38120;53.176;6.614;2022-12-29T15:46:22;8.40;99.90
52127;DHT22;38120;53.176;6.614;2022-12-29T15:48:47;8.30;99.90
52127;DHT22;38120;53.176;6.614;2022-12-29T15:51:29;8.40;99.90
52127;DHT22;38120;53.176;6.614;2022-12-29T15:53:55;8.40;99.90
52127;DHT22;38120;53.176;6.614;2022-12-29T15:56:22;8.40;99.90
52127;DHT22;38120;53.176;6.614;2022-12-29T15:58:50;8.30;99.90
52127;DHT22;38120;53.176;6.614;2022-12-29T16:03:53;8.40;99.90
52127;DHT22;38120;53.176;6.614;2022-12-29T16:06:38;8.40;99.90
52127;DHT22;38120;53.176;6.614;2022-12-29T16:09:31;8.40;99.90
52127;DHT22;38120;53.176;6.614;2022-12-29T16:12:01;8.50;99.90
52127;DHT22;38120;53.176;6.614;2022-12-29T16:14:46;8.40;99.90
52127;DHT22;38120;53.176;6.614;2022-12-29T16:17:15;8.40;99.90
52127;DHT22;38120;53.176;6.614;2022-12-29T16:20:06;8.40;99.90
52127;DHT22;38120;53.176;6.614;2022-12-29T16:22:42;8.50;99.90
52127;DHT22;38120;53.176;6.614;2022-12-29T16:27:41;8.40;99.90
52127;DHT22;38120;53.176;6.614;2022-12-29T16:30:19;8.40;99.90
52127;DHT22;38120;53.176;6.614;2022-12-29T16:32:48;8.40;99.90
52127;DHT22;38120;53.176;6.614;2022-12-29T16:35:23;8.20;99.90
52127;DHT22;38120;53.176;6.614;2022-12-29T16:38:15;7.80;99.90
52127;DHT22;38120;53.176;6.614;2022-12-29T16:40:56;7.50;99.90
52127;DHT22;38120;53.176;6.614;2022-12-29T16:43:27;7.30;99.90
52127;DHT22;38120;53.176;6.614;2022-12-29T16:51:14;7.20;99.90
52127;DHT22;38120;53.176;6.614;2022-12-29T16:53:47;7.20;99.90
52127;DHT22;38120;53.176;6.614;2022-12-29T16:56:17;7.20;99.90
52127;DHT22;38120;53.176;6.614;2022-12-29T16:58:48;7.30;99.90
52127;DHT22;38120;53.176;6.614;2022-12-29T17:01:15;7.20;99.90
52127;DHT22;38120;53.176;6.614;2022-12-29T17:03:58;7.20;99.90
52127;DHT22;38120;53.176;6.614;2022-12-29T17:06:25;7.20;99.90
52127;DHT22;38120;53.176;6.614;2022-12-29T17:08:51;7.10;99.90
52127;DHT22;38120;53.176;6.614;2022-12-29T17:11:23;7.20;99.90
52127;DHT22;38120;53.176;6.614;2022-12-29T17:16:47;7.00;99.90
52127;DHT22;38120;53.176;6.614;2022-12-29T17:19:18;7.00;99.90
52127;DHT22;38120;53.176;6.614;2022-12-29T17:21:45;7.00;99.90
52127;DHT22;38120;53.176;6.614;2022-12-29T17:24:19;7.10;99.90
52127;DHT22;38120;53.176;6.614;2022-12-29T17:26:48;7.00;99.90
52127;DHT22;38120;53.176;6.614;2022-12-29T17:29:31;8.50;99.90
52127;DHT22;38120;53.176;6.614;2022-12-29T17:31:58;7.10;99.90
52127;DHT22;38120;53.176;6.614;2022-12-29T17:34:24;7.30;99.90
52127;DHT22;38120;53.176;6.614;2022-12-29T17:36:50;7.60;99.90
52127;DHT22;38120;53.176;6.614;2022-12-29T17:39:16;7.50;99.90
52127;DHT22;38120;53.176;6.614;2022-12-29T17:41:42;7.50;99.90
52127;DHT22;38120;53.176;6.614;2022-12-29T17:44:15;7.50;99.90
52127;DHT22;38120;53.176;6.614;2022-12-29T17:46:41;8.90;99.90
52127;DHT22;38120;53.176;6.614;2022-12-29T17:49:16;7.60;99.90
52127;DHT22;38120;53.176;6.614;2022-12-29T17:51:43;7.50;99.90
52127;DHT22;38120;53.176;6.614;2022-12-29T17:54:24;7.50;99.90
52127;DHT22;38120;53.176;6.614;2022-12-29T17:56:50;7.50;99.90
52127;DHT22;38120;53.176;6.614;2022-12-29T17:59:17;7.50;99.90
52127;DHT22;38120;53.176;6.614;2022-12-29T18:01:45;7.60;99.90
52127;DHT22;38120;53.176;6.614;2022-12-29T18:04:13;7.50;99.90
52127;DHT22;38120;53.176;6.614;2022-12-29T18:06:39;7.50;99.90
52127;DHT22;38120;53.176;6.614;2022-12-29T18:09:05;8.20;99.90
52127;DHT22;38120;53.176;6.614;2022-12-29T18:11:33;7.50;99.90
52127;DHT22;38120;53.176;6.614;2022-12-29T18:14:00;7.50;99.90
52127;DHT22;38120;53.176;6.614;2022-12-29T18:16:27;7.50;99.90
52127;DHT22;38120;53.176;6.614;2022-12-29T18:18:53;7.40;99.90
52127;DHT22;38120;53.176;6.614;2022-12-29T18:21:20;7.40;99.90
52127;DHT22;38120;53.176;6.614;2022-12-29T18:23:46;8.10;99.90
52127;DHT22;38120;53.176;6.614;2022-12-29T18:26:21;7.70;99.90
52127;DHT22;38120;53.176;6.614;2022-12-29T18:28:48;7.40;99.90